createdAt,value
2019-04-12T00:00:50.227Z,"    0"
2019-04-12T00:05:45.874Z,"    0"
2019-04-12T00:10:41.579Z,"    0"
2019-04-12T00:15:37.379Z,"    0"
2019-04-12T00:20:33.321Z,"    0"
2019-04-12T00:25:29.280Z,"    0"
2019-04-12T00:30:24.841Z,"    0"
2019-04-12T00:35:21.648Z,"    0"
2019-04-12T00:40:17.636Z,"    0"
2019-04-12T00:45:13.294Z,"    0"
2019-04-12T00:50:12.017Z,"    0"
2019-04-12T00:55:06.799Z,"    0"
2019-04-12T01:00:03.302Z,"    0"
2019-04-12T01:04:59.247Z,"    0"
2019-04-12T01:09:55.028Z,"    0"
2019-04-12T01:14:50.650Z,"    0"
2019-04-12T01:19:46.035Z,"    0"
2019-04-12T01:24:41.944Z,"    0"
2019-04-12T01:29:37.508Z,"    0"
2019-04-12T01:34:33.088Z,"    0"
2019-04-12T01:39:28.774Z,"    0"
2019-04-12T01:44:24.422Z,"    0"
2019-04-12T01:49:20.075Z,"    0"
2019-04-12T01:54:17.219Z,"    0"
2019-04-12T01:59:12.569Z,"    0"
2019-04-12T02:04:08.239Z,"    0"
2019-04-12T02:09:04.062Z,"    0"
2019-04-12T02:14:00.633Z,"    0"
2019-04-12T02:18:55.888Z,"    0"
2019-04-12T02:23:51.786Z,"    0"
2019-04-12T02:28:47.467Z,"    0"
2019-04-12T02:33:43.251Z,"    0"
2019-04-12T02:38:38.639Z,"    0"
2019-04-12T02:43:34.225Z,"    0"
2019-04-12T02:48:29.778Z,"    0"
2019-04-12T02:53:25.618Z,"    0"
2019-04-12T02:58:22.317Z,"    0"
2019-04-12T03:03:17.723Z,"    0"
2019-04-12T03:08:13.277Z,"    0"
2019-04-12T03:13:08.813Z,"    0"
2019-04-12T03:18:04.716Z,"    0"
2019-04-12T03:23:00.421Z,"    0"
2019-04-12T03:27:55.966Z,"    0"
2019-04-12T03:32:51.658Z,"    0"
2019-04-12T03:37:47.405Z,"    0"
2019-04-12T03:42:42.940Z,"    0"
2019-04-12T03:47:38.589Z,"    0"
2019-04-12T03:52:34.081Z,"    0"
2019-04-12T03:57:29.715Z,"    0"
2019-04-12T04:02:26.320Z,"    0"
2019-04-12T04:07:21.465Z,"    0"
2019-04-12T04:12:16.919Z,"    0"
2019-04-12T04:17:13.174Z,"    0"
2019-04-12T04:22:08.745Z,"    4"
2019-04-12T04:27:04.262Z,"    8"
2019-04-12T04:32:00.326Z,"   20"
2019-04-12T04:36:55.651Z,"   36"
2019-04-12T04:41:51.744Z,"   60"
2019-04-12T04:46:47.292Z,"   84"
2019-04-12T04:51:43.392Z,"  116"
2019-04-12T04:56:39.113Z,"  156"
2019-04-12T05:01:34.336Z,"  220"
2019-04-12T05:06:31.113Z,"  256"
2019-04-12T05:11:26.344Z,"  340"
2019-04-12T05:16:21.929Z,"  416"
2019-04-12T05:21:17.303Z,"  508"
2019-04-12T05:26:13.024Z,"  556"
2019-04-12T05:31:10.495Z,"  688"
2019-04-12T05:36:06.408Z,"  804"
2019-04-12T05:41:02.185Z,"  828"
2019-04-12T05:45:58.427Z," 1032"
2019-04-12T05:50:54.043Z," 1084"
2019-04-12T05:55:49.759Z," 1288"
2019-04-12T06:00:45.804Z," 1564"
2019-04-12T06:05:42.560Z," 1592"
2019-04-12T06:10:38.760Z," 1412"
2019-04-12T06:15:34.412Z," 1372"
2019-04-12T06:20:30.214Z," 1776"
2019-04-12T06:25:26.413Z," 2088"
2019-04-12T06:30:22.079Z," 2576"
2019-04-12T06:35:17.980Z," 2996"
2019-04-12T06:40:13.865Z," 3116"
2019-04-12T06:45:10.680Z," 3020"
2019-04-12T06:50:05.988Z," 3684"
2019-04-12T06:55:02.022Z," 4784"
2019-04-12T06:59:58.043Z," 5984"
2019-04-12T07:04:53.607Z," 5536"
2019-04-12T07:09:49.369Z," 4704"
2019-04-12T07:14:45.130Z," 4788"
2019-04-12T07:19:40.878Z," 6348"
2019-04-12T07:24:36.715Z," 8168"
2019-04-12T07:29:32.815Z," 9904"
2019-04-12T07:34:28.910Z," 8844"
2019-04-12T07:39:24.350Z," 6800"
2019-04-12T07:44:20.068Z," 7044"
2019-04-12T07:49:15.728Z," 6196"
2019-04-12T07:54:11.347Z," 5116"
2019-04-12T07:59:07.067Z," 4980"
2019-04-12T08:04:02.521Z," 5340"
2019-04-12T08:08:58.337Z," 6280"
2019-04-12T08:13:54.220Z," 6540"
2019-04-12T08:18:49.909Z," 5896"
2019-04-12T08:23:45.707Z," 6068"
2019-04-12T08:28:41.464Z," 7836"
2019-04-12T08:33:37.947Z," 8332"
2019-04-12T08:38:34.850Z," 9556"
2019-04-12T08:43:30.503Z,15380
2019-04-12T08:48:27.916Z,14472
2019-04-12T08:53:23.481Z," 9112"
2019-04-12T08:58:19.287Z,18560
2019-04-12T09:03:14.603Z," 4696"
2019-04-12T09:08:10.160Z," 1976"
2019-04-12T09:13:05.213Z," 1948"
2019-04-12T09:18:01.066Z," 4012"
2019-04-12T09:22:57.379Z," 6388"
2019-04-12T09:27:52.610Z," 4404"
2019-04-12T09:32:48.355Z," 5560"
2019-04-12T09:37:45.385Z," 8684"
2019-04-12T09:42:41.935Z,11744
2019-04-12T09:47:38.381Z,14132
2019-04-12T09:52:34.548Z," 8696"
2019-04-12T09:57:30.314Z,11832
2019-04-12T10:02:26.913Z,23168
2019-04-12T10:07:23.301Z,19040
2019-04-12T10:12:19.716Z,10736
2019-04-12T10:17:14.935Z," 7748"
2019-04-12T10:22:10.223Z," 8588"
2019-04-12T10:27:05.899Z," 7504"
2019-04-12T10:32:00.956Z," 7096"
2019-04-12T10:36:58.217Z," 6744"
2019-04-12T10:41:53.842Z," 6720"
2019-04-12T10:46:49.736Z,10276
2019-04-12T10:51:45.752Z,10396
2019-04-12T10:56:41.537Z," 6800"
2019-04-12T11:01:37.309Z," 5248"
2019-04-12T11:06:33.070Z," 6760"
2019-04-12T11:11:29.351Z," 8232"
2019-04-12T11:16:27.135Z," 8428"
2019-04-12T11:21:22.443Z," 8452"
2019-04-12T11:26:18.062Z," 7900"
2019-04-12T11:31:14.129Z," 6728"
2019-04-12T11:36:09.911Z," 5840"
2019-04-12T11:41:05.434Z," 5984"
2019-04-12T11:46:01.187Z," 6740"
2019-04-12T11:50:57.091Z," 7484"
2019-04-12T11:55:54.042Z," 7996"
2019-04-12T12:00:49.758Z," 8648"
2019-04-12T12:05:45.503Z," 9052"
2019-04-12T12:10:41.427Z," 9160"
2019-04-12T12:15:37.923Z," 9700"
2019-04-12T12:20:33.920Z,10376
2019-04-12T12:25:29.898Z,12004
2019-04-12T12:30:26.095Z,17888
2019-04-12T12:35:22.122Z,11892
2019-04-12T12:40:18.372Z," 8216"
2019-04-12T12:45:13.909Z," 7120"
2019-04-12T12:50:09.429Z," 6724"
2019-04-12T12:55:04.799Z," 6860"
2019-04-12T13:00:00.774Z," 8060"
2019-04-12T13:04:56.776Z," 8740"
2019-04-12T13:09:52.547Z," 9056"
2019-04-12T13:14:49.237Z," 8336"
2019-04-12T13:19:45.835Z," 9016"
2019-04-12T13:24:42.161Z," 9956"
2019-04-12T13:29:38.889Z," 8276"
2019-04-12T13:34:34.472Z," 8100"
2019-04-12T13:39:30.602Z," 9284"
2019-04-12T13:44:26.221Z," 5796"
2019-04-12T13:49:21.639Z," 6788"
2019-04-12T13:54:16.833Z," 6648"
2019-04-12T13:59:12.840Z," 6440"
2019-04-12T14:04:08.590Z," 5840"
2019-04-12T14:09:04.394Z," 7828"
2019-04-12T14:14:00.844Z," 8708"
2019-04-12T14:18:57.688Z,10044
2019-04-12T14:23:54.213Z," 7276"
2019-04-12T14:28:50.331Z," 5856"
2019-04-12T14:33:46.282Z," 5684"
2019-04-12T14:38:41.698Z," 5592"
2019-04-12T14:43:37.346Z," 5936"
2019-04-12T14:48:33.036Z," 6024"
2019-04-12T14:53:28.714Z," 6076"
2019-04-12T14:58:24.415Z," 6296"
2019-04-12T15:03:20.309Z," 6180"
2019-04-12T15:08:17.082Z," 5964"
2019-04-12T15:13:13.720Z," 5008"
2019-04-12T15:18:09.068Z," 3708"
2019-04-12T15:23:04.754Z," 2556"
2019-04-12T15:28:00.427Z," 1296"
2019-04-12T15:32:56.160Z," 1084"
2019-04-12T15:37:54.071Z," 1572"
2019-04-12T15:42:48.885Z," 1932"
2019-04-12T15:47:45.117Z," 2256"
2019-04-12T15:52:40.482Z," 3540"
2019-04-12T15:57:36.346Z," 4572"
2019-04-12T16:02:33.129Z," 4616"
2019-04-12T16:07:28.824Z," 4100"
2019-04-12T16:12:25.718Z," 3520"
2019-04-12T16:17:20.940Z," 2592"
2019-04-12T16:22:18.288Z," 2080"
2019-04-12T16:27:13.340Z," 2220"
2019-04-12T16:32:09.544Z," 2932"
2019-04-12T16:37:06.321Z," 2888"
2019-04-12T16:42:01.650Z," 3484"
2019-04-12T16:46:58.175Z," 3380"
2019-04-12T16:51:53.486Z," 1892"
2019-04-12T16:56:49.311Z," 1512"
2019-04-12T17:01:46.177Z," 1996"
2019-04-12T17:06:41.650Z," 1928"
2019-04-12T17:11:37.453Z," 1620"
2019-04-12T17:16:33.219Z," 1580"
2019-04-12T17:21:29.926Z," 1240"
2019-04-12T17:26:26.214Z,"  872"
2019-04-12T17:31:21.519Z,"  908"
2019-04-12T17:36:17.251Z,"  956"
2019-04-12T17:41:12.795Z,"  828"
2019-04-12T17:46:09.336Z,"  728"
2019-04-12T17:51:04.622Z,"  612"
2019-04-12T17:56:01.219Z,"  512"
2019-04-12T18:00:56.715Z,"  416"
2019-04-12T18:10:51.811Z,"  236"
2019-04-12T18:15:47.350Z,"  168"
2019-04-12T18:20:42.865Z,"  112"
2019-04-12T18:25:39.597Z,"   68"
2019-04-12T18:30:35.070Z,"   36"
2019-04-12T18:35:31.319Z,"   20"
2019-04-12T18:40:26.720Z,"    8"
2019-04-12T18:45:22.937Z,"    4"
2019-04-12T18:50:18.199Z,"    4"
2019-04-12T18:55:14.076Z,"    0"
2019-04-12T19:00:10.830Z,"    0"
2019-04-12T19:05:08.298Z,"    0"
2019-04-12T19:10:03.580Z,"    0"
2019-04-12T19:14:59.200Z,"    0"
2019-04-12T19:19:54.952Z,"    0"
2019-04-12T19:24:51.807Z,"    0"
2019-04-12T19:29:46.682Z,"    0"
2019-04-12T19:34:42.410Z,"    0"
2019-04-12T19:39:38.083Z,"    0"
2019-04-12T19:44:34.486Z,"    0"
2019-04-12T19:49:31.191Z,"    0"
2019-04-12T19:54:26.695Z,"    0"
2019-04-12T19:59:23.718Z,"    0"
2019-04-12T20:04:19.249Z,"    0"
2019-04-12T20:09:14.855Z,"    0"
2019-04-12T20:14:10.826Z,"    0"
2019-04-12T20:19:06.457Z,"    0"
2019-04-12T20:24:01.995Z,"    0"
2019-04-12T20:28:57.686Z,"    0"
2019-04-12T20:33:54.331Z,"    0"
2019-04-12T20:38:49.782Z,"    0"
2019-04-12T20:43:45.847Z,"    0"
2019-04-12T20:48:42.558Z,"    0"
2019-04-12T20:53:38.127Z,"    0"
2019-04-12T20:58:34.820Z,"    0"
2019-04-12T21:03:31.271Z,"    0"
2019-04-12T21:08:27.015Z,"    0"
2019-04-12T21:13:22.709Z,"    0"
2019-04-12T21:18:18.697Z,"    0"
2019-04-12T21:23:14.307Z,"    0"
2019-04-12T21:28:09.969Z,"    0"
2019-04-12T21:33:06.246Z,"    0"
2019-04-12T21:38:02.557Z,"    0"
2019-04-12T21:42:57.897Z,"    0"
2019-04-12T21:47:53.693Z,"    0"
2019-04-12T21:52:49.277Z,"    0"
2019-04-12T21:57:45.211Z,"    0"
2019-04-12T22:02:42.007Z,"    0"
2019-04-12T22:07:37.415Z,"    0"
2019-04-12T22:12:33.248Z,"    0"
2019-04-12T22:17:29.481Z,"    0"
2019-04-12T22:22:25.239Z,"    0"
2019-04-12T22:27:20.892Z,"    0"
2019-04-12T22:32:16.387Z,"    0"
2019-04-12T22:37:12.122Z,"    0"
2019-04-12T22:42:07.713Z,"    0"
2019-04-12T22:47:04.406Z,"    0"
2019-04-12T22:52:00.042Z,"    0"
2019-04-12T22:56:55.436Z,"    0"
2019-04-12T23:01:50.940Z,"    0"
2019-04-12T23:06:46.621Z,"    0"
2019-04-12T23:11:42.302Z,"    0"
2019-04-12T23:16:38.376Z,"    0"
2019-04-12T23:21:34.219Z,"    0"
2019-04-12T23:26:29.913Z,"    0"
2019-04-12T23:31:25.607Z,"    0"
2019-04-12T23:36:21.125Z,"    0"
2019-04-12T23:41:16.801Z,"    0"
2019-04-12T23:46:14.170Z,"    0"
2019-04-12T23:51:09.524Z,"    0"
2019-04-12T23:56:05.096Z,"    0"
